Latest Coastal Weather Observations for Albany Airport

IDW60701

Issued at 9:43 pm WST Monday 4 May 2026 (issued every 10 minutes, with the page automatically refreshed every 10 minutes)

About coastal observations | Map of coastal stations | Coastal observations for WA | Marine services | Other Formats
Station Details ID: 009999 Name: ALBANY AIRPORT Lat: -34.94 Lon: 117.82 Height: 68.4 m
Data from the previous 72 hours. | See also: Recent months at Albany Airport
Date/Time
WST
Wind Sea
Height
m
Swell Vis
km
Cloud Weather Temp
°C
Press
MSL
hPa
Rain since
9am
mm
Dir  Spd
kts
Gust
kts
Height
m
Period
s
Dir
04/09:30pm SE 3 3 - - - - 10 Mostly clear - 12.9 1028.5 0.0
04/09:00pm SSE 3 4 - - - - 10 Cloudy Drizzle 13.5 1028.5 0.0
04/08:30pm SSE 4 5 - - - - 10 Cloudy - 14.0 1028.5 0.0
04/08:00pm SE 4 6 - - - - 10 Mostly clear - 14.2 1028.6 0.0
04/07:59pm SE 4 6 - - - - 10 Mostly clear - 14.2 1028.6 0.0
04/07:41pm CALM 0 4 - - - - 10 Partly cloudy - 13.9 1028.7 0.0
04/07:30pm CALM 0 0 - - - - 10 Mostly clear - 14.0 1028.6 0.0
04/07:25pm CALM 0 0 - - - - 10 Mostly clear - 14.0 1028.6 0.0
04/07:00pm CALM 0 3 - - - - 10 Partly cloudy - 13.8 1028.6 0.0
04/06:48pm SSE 3 4 - - - - 10 Partly cloudy - 14.1 1028.5 0.0
04/06:30pm SSE 4 5 - - - - 10 Partly cloudy - 14.4 1028.4 0.0
04/06:00pm SSE 5 7 - - - - 10 Mostly cloudy - 15.0 1028.2 0.0
04/05:30pm SSE 5 7 - - - - 10 Cloudy - 15.3 1027.9 0.0
04/05:00pm S 6 8 - - - - 10 Cloudy - 15.7 1027.9 0.0
04/04:30pm SSW 7 9 - - - - 10 Cloudy - 16.3 1027.8 0.0
04/04:00pm SSW 6 8 - - - - 10 Partly cloudy - 17.1 1027.6 0.0
04/03:30pm S 5 9 - - - - 10 Partly cloudy - 17.5 1027.5 0.0
04/03:00pm S 5 6 - - - - 10 Cloudy - 17.8 1027.4 0.0
04/02:30pm S 6 9 - - - - 10 Cloudy - 18.1 1027.3 0.0
04/02:00pm WNW 6 8 - - - - 10 Cloudy - 19.9 1027.2 0.0
04/01:30pm WSW 5 7 - - - - 10 Partly cloudy - 17.6 1027.5 0.0
04/01:00pm SW 4 7 - - - - 10 Cloudy - 17.3 1027.8 0.0
04/12:30pm SW 6 7 - - - - 10 Cloudy - 17.1 1028.1 0.0
04/12:00pm W 3 6 - - - - 10 Cloudy - 17.1 1028.4 0.0
04/11:30am WSW 4 5 - - - - 10 Mostly clear - 16.6 1028.7 0.0
04/11:00am W 2 4 - - - - 10 Mostly clear - 16.4 1028.8 0.0
04/10:30am NW 4 6 - - - - 10 Cloudy - 16.6 1028.9 0.0
04/10:00am NW 4 6 - - - - 10 Cloudy - 15.7 1029.1 0.0
04/09:30am WNW 5 6 - - - - 10 Mostly clear - 14.8 1029.2 0.0
04/09:00am NW 4 5 - - - - 10 Cloudy - 14.3 1029.2 1.0
04/08:30am NNW 4 5 - - - - 10 Partly cloudy - 14.0 1029.1 1.0
04/08:00am WNW 4 5 - - - - 10 Partly cloudy - 13.6 1028.9 1.0
04/07:30am NW 5 6 - - - - 10 Cloudy - 12.8 1028.4 1.0
04/07:00am WNW 6 8 - - - - 7 Partly cloudy - 12.4 1028.2 1.0
04/06:53am NW 5 7 - - - - 10 Partly cloudy - 12.5 1028.2 1.0
04/06:30am WSW 5 6 - - - - 1 Mostly clear - 12.5 1028.3 0.8
04/06:23am WSW 5 7 - - - - 6 Mostly clear - 12.4 1028.3 0.8
04/06:13am SSW 1 8 - - - - 10 Partly cloudy - 12.2 1028.2 0.8
04/06:00am CALM 0 0 - - - - 5 Cloudy Showers 11.9 1028.1 0.8
04/05:51am SW 1 4 - - - - 6 Partly cloudy - 11.9 1028.1 0.8
04/05:30am WNW 4 5 - - - - 10 Mostly clear - 12.1 1028.1 0.8
04/05:21am WNW 4 5 - - - - 10 Partly cloudy - 12.0 1028.1 0.8
04/05:00am W 3 4 - - - - 5 Partly cloudy - 11.6 1028.3 0.8
04/04:56am W 3 4 - - - - 6 Partly cloudy - 11.6 1028.3 0.8
04/04:43am W 5 6 - - - - 1 Partly cloudy - 11.1 1028.4 0.8
04/04:30am NW 5 6 - - - - 2 Partly cloudy - 11.3 1028.2 0.8
04/04:13am WNW 6 6 - - - - 0.8 Mostly clear - 11.8 1028.2 0.8
04/04:00am NW 5 6 - - - - 0.2 Partly cloudy - 11.3 1028.2 0.8
04/03:39am NW 4 4 - - - - 0.5 Partly cloudy - 11.0 1028.1 0.8
04/03:30am NW 3 4 - - - - 0.5 Mostly clear - 11.0 1028.0 0.8
04/03:00am WNW 3 4 - - - - 2 Mostly cloudy - 11.2 1028.0 0.8
04/02:59am WNW 3 4 - - - - 4 Mostly clear - 11.4 1028.0 0.8
04/02:30am WNW 5 6 - - - - 10 Cloudy - 11.9 1028.1 0.8
04/02:00am WNW 5 5 - - - - 10 Mostly clear - 11.4 1028.1 0.8
04/01:59am WNW 5 5 - - - - 10 Mostly clear - 11.4 1028.1 0.8
04/01:30am W 4 5 - - - - 10 Mostly clear - 11.8 1028.2 0.8
04/01:26am W 4 5 - - - - 10 Mostly clear - 11.8 1028.2 0.8
04/01:10am WSW 5 6 - - - - 6 Mostly clear - 11.6 1028.2 0.8
04/01:00am WNW 4 5 - - - - 10 Partly cloudy - 11.3 1028.1 0.8
04/12:38am WNW 4 4 - - - - 10 Cloudy - 11.8 1028.0 0.6
04/12:30am WNW 4 5 - - - - 9 Partly cloudy - 12.0 1028.1 0.6
04/12:16am WNW 4 5 - - - - 6 Partly cloudy - 12.0 1028.1 0.6
04/12:12am WNW 4 5 - - - - 10 Partly cloudy - 11.9 1028.1 0.6
04/12:00am WNW 2 4 - - - - 10 Cloudy Recent precip. 11.6 1028.0 0.6
 
Date/Time
WST
Wind Sea
Height
m
Swell Vis
km
Cloud Weather Temp
°C
Press
MSL
hPa
Rain since
9am
mm
Dir  Spd
kts
Gust
kts
Height
m
Period
s
Dir
03/11:30pm WNW 5 6 - - - - 10 Partly cloudy - 11.5 1028.0 0.4
03/11:13pm WNW 3 5 - - - - 10 Mostly clear - 12.0 1028.0 0.4
03/11:00pm CALM 0 0 - - - - 4 Mostly clear - 12.3 1028.1 0.4
03/10:30pm CALM 0 0 - - - - 8 Mostly clear - 11.7 1028.3 0.4
03/10:29pm CALM 0 0 - - - - 9 Mostly clear - 11.7 1028.3 0.4
03/10:00pm CALM 0 0 - - - - 2 Partly cloudy - 11.5 1028.2 0.4
03/09:30pm WNW 3 3 - - - - 0.1 Partly cloudy - 11.1 1028.2 0.4
03/09:26pm WNW 3 5 - - - - 0.1 Partly cloudy - 11.0 1028.1 0.4
03/09:00pm WNW 4 5 - - - - 5 Partly cloudy - 12.5 1028.0 0.4
03/08:59pm WNW 4 5 - - - - 6 Partly cloudy - 12.5 1028.0 0.4
03/08:30pm WNW 4 5 - - - - 10 Mostly clear - 12.9 1028.1 0.4
03/08:03pm NW 2 3 - - - - 10 Mostly clear - 13.3 1028.1 0.4
03/08:00pm NW 2 3 - - - - 10 Mostly clear - 13.1 1028.1 0.4
03/07:30pm NW 3 4 - - - - 10 Partly cloudy - 13.4 1027.9 0.4
03/07:27pm NW 4 4 - - - - 10 Partly cloudy - 13.4 1027.9 0.4
03/07:26pm NW 4 4 - - - - 10 Partly cloudy - 13.5 1027.9 0.4
03/07:08pm WNW 3 4 - - - - 6 Mostly clear - 13.7 1027.8 0.4
03/07:00pm SW 1 4 - - - - 9 Partly cloudy - 13.8 1027.7 0.4
03/06:50pm CALM 0 0 - - - - 10 Mostly clear - 13.9 1027.6 0.2
03/06:30pm CALM 0 0 - - - - 5 Mostly clear - 14.1 1027.4 0.2
03/06:29pm CALM 0 0 - - - - 5 Partly cloudy - 14.1 1027.4 0.2
03/06:00pm S 3 4 - - - - 10 Cloudy - 14.1 1027.1 0.2
03/05:30pm SSW 5 6 - - - - 10 Partly cloudy - 14.7 1026.9 0.2
03/05:00pm SSW 6 8 - - - - 10 Partly cloudy - 15.6 1026.6 0.2
03/04:30pm SSW 3 5 - - - - 10 Mostly clear - 15.6 1026.5 0.2
03/04:00pm S 3 5 - - - - 10 Partly cloudy - 15.6 1026.5 0.2
03/03:30pm S 6 8 - - - - 10 Partly cloudy - 16.2 1026.3 0.2
03/03:00pm S 5 8 - - - - 10 Cloudy - 16.9 1026.2 0.2
03/02:30pm S 6 8 - - - - 10 Cloudy - 16.7 1026.1 0.2
03/02:00pm SSW 7 9 - - - - 10 Partly cloudy - 16.8 1026.0 0.2
03/01:30pm SSW 7 10 - - - - 10 Partly cloudy - 17.0 1026.0 0.2
03/01:00pm S 6 8 - - - - 10 Cloudy - 17.2 1026.2 0.2
03/12:30pm S 7 10 - - - - 10 Mostly clear - 17.0 1026.5 0.2
03/12:00pm S 7 9 - - - - 10 Cloudy - 16.7 1026.8 0.2
03/11:30am SSE 5 8 - - - - 10 Partly cloudy - 16.9 1027.0 0.2
03/11:09am SSE 5 7 - - - - 10 Mostly clear - 15.8 1027.1 0.2
03/11:00am S 7 9 - - - - 10 Mostly clear - 15.3 1027.2 0.2
03/10:53am SSE 6 8 - - - - 8 Partly cloudy - 15.7 1027.2 0.2
03/10:50am SSE 5 8 - - - - 9 Partly cloudy - 15.6 1027.2 0.2
03/10:30am SSW 6 8 - - - - 10 Partly cloudy - 14.9 1027.4 0.2
03/10:27am SSW 7 10 - - - - 9 Partly cloudy - 14.9 1027.3 0.2
03/10:00am SSE 7 10 - - - - 10 Partly cloudy - 15.1 1027.3 0.0
03/09:43am SSE 4 6 - - - - 10 Partly cloudy - 15.4 1027.3 0.0
03/09:30am SSE 6 11 - - - - 5 Partly cloudy - 14.5 1027.3 0.0
03/09:26am S 7 11 - - - - 6 Partly cloudy - 14.7 1027.3 0.0
03/09:00am S 5 9 - - - - 10 Cloudy Drizzle 14.9 1027.1 6.8
03/08:30am SSE 5 8 - - - - 10 Mostly clear - 14.0 1026.6 6.8
03/08:22am SSE 5 8 - - - - 10 Mostly clear - 13.9 1026.6 6.8
03/08:18am SSE 5 6 - - - - 10 Mostly clear - 14.2 1026.5 6.8
03/08:07am S 5 7 - - - - 4 Mostly clear - 13.8 1026.4 6.8
03/08:03am S 4 5 - - - - 6 Mostly clear - 13.8 1026.4 6.8
03/08:00am S 4 5 - - - - 10 Mostly clear - 13.8 1026.4 6.8
03/07:30am SSE 4 5 - - - - 10 Partly cloudy - 13.0 1026.1 6.8
03/07:00am SW 4 6 - - - - 10 Mostly clear - 12.6 1025.8 6.8
03/06:30am S 4 5 - - - - 10 Mostly clear - 12.8 1025.5 6.8
03/06:23am S 4 6 - - - - 10 Mostly clear - 12.9 1025.4 6.8
03/06:19am S 4 6 - - - - 10 Mostly clear - 13.0 1025.4 6.8
03/06:00am SW 3 5 - - - - 4 Cloudy Showers 12.8 1025.4 6.8
03/05:59am SW 3 5 - - - - 4 Partly cloudy - 12.6 1025.4 6.8
03/05:50am SSW 4 4 - - - - 6 Mostly clear - 12.5 1025.4 6.6
03/05:30am SSE 5 11 - - - - 10 Mostly clear - 12.8 1025.1 6.6
03/05:04am SSE 4 5 - - - - 10 Partly cloudy - 12.7 1024.9 6.4
03/05:00am SSE 4 7 - - - - 10 Partly cloudy - 12.9 1024.9 6.4
03/04:55am S 4 7 - - - - 10 Partly cloudy - 12.9 1024.9 6.4
03/04:47am S 5 7 - - - - 7 Partly cloudy - 12.9 1024.8 6.4
03/04:43am S 5 6 - - - - 6 Mostly clear - 12.8 1024.8 6.4
03/04:30am SSE 3 5 - - - - 10 Mostly clear - 12.6 1024.7 6.4
03/04:00am SSE 3 4 - - - - 10 Mostly clear - 12.6 1024.5 6.2
03/03:30am SSE 3 5 - - - - 10 Mostly clear - 12.5 1024.4 6.2
03/03:00am S 4 6 - - - - 10 Cloudy Showers 12.7 1024.4 6.2
03/02:31am CALM 0 0 - - - - 10 Partly cloudy - 12.2 1024.4 6.2
03/02:30am CALM 0 1 - - - - 10 Partly cloudy - 12.2 1024.4 6.2
03/02:20am WNW 2 4 - - - - 6 Partly cloudy - 12.1 1024.5 6.2
03/02:00am WNW 3 4 - - - - 10 Mostly clear - 11.5 1024.5 6.2
03/01:30am WNW 4 5 - - - - 10 Partly cloudy - 11.8 1024.4 6.0
03/01:00am W 1 4 - - - - 10 Mostly clear - 11.5 1024.3 6.0
03/12:30am SSE 4 5 - - - - 10 Mostly clear - 12.2 1024.2 6.0
03/12:00am CALM 0 0 - - - - 10 Partly cloudy Drizzle 12.2 1024.1 6.0
 
Date/Time
WST
Wind Sea
Height
m
Swell Vis
km
Cloud Weather Temp
°C
Press
MSL
hPa
Rain since
9am
mm
Dir  Spd
kts
Gust
kts
Height
m
Period
s
Dir
02/11:30pm SW 3 4 - - - - 10 Mostly clear - 12.6 1024.1 6.0
02/11:00pm S 6 10 - - - - 8 Mostly clear - 13.1 1024.1 6.0
02/10:51pm S 6 10 - - - - 10 Partly cloudy - 13.1 1024.1 6.0
02/10:30pm SSW 5 7 - - - - 5 Partly cloudy - 12.9 1024.2 5.6
02/10:24pm S 5 6 - - - - 6 Mostly clear - 12.8 1024.2 5.6
02/10:00pm SW 5 7 - - - - 10 Mostly clear - 12.7 1024.2 5.4
02/09:30pm SW 4 4 - - - - 10 Mostly clear - 13.0 1024.1 5.2
02/09:00pm SW 4 5 - - - - 10 Cloudy Showers 13.2 1024.0 5.2
02/08:56pm SSW 4 7 - - - - 10 Mostly clear - 13.1 1024.0 5.2
02/08:46pm SSE 4 6 - - - - 10 Partly cloudy - 13.2 1023.9 5.2
02/08:30pm WSW 4 7 - - - - 5 Partly cloudy - 13.2 1024.0 5.0
02/08:27pm WSW 5 7 - - - - 6 Partly cloudy - 13.2 1023.9 5.0
02/08:19pm WSW 4 7 - - - - 10 Partly cloudy - 13.2 1023.9 4.6
02/08:14pm WSW 3 5 - - - - 10 Partly cloudy - 13.1 1023.9 4.6
02/08:01pm WSW 5 6 - - - - 10 Partly cloudy - 13.1 1023.8 4.6
02/08:00pm WSW 5 6 - - - - 10 Partly cloudy - 13.1 1023.8 4.6
02/07:30pm WSW 5 8 - - - - 7 Partly cloudy - 13.0 1023.8 3.6
02/07:08pm S 4 6 - - - - 4 Mostly clear - 13.0 1023.8 2.6
02/07:02pm SW 5 7 - - - - 5 Mostly clear - 13.2 1023.7 1.8
02/07:00pm WSW 5 7 - - - - 9 Mostly clear - 13.3 1023.7 1.4
02/06:45pm WSW 5 8 - - - - 10 Mostly clear - 13.2 1023.6 1.4
02/06:32pm WSW 6 8 - - - - 6 Mostly clear - 13.3 1023.6 1.4
02/06:30pm WSW 6 8 - - - - 7 Mostly clear - 13.4 1023.6 1.4
02/06:00pm W 7 9 - - - - 10 Cloudy - 14.1 1023.2 1.2
02/05:30pm W 6 7 - - - - 10 Partly cloudy - 14.0 1023.0 1.2
02/05:00pm WSW 7 9 - - - - 10 Partly cloudy - 14.0 1023.0 1.2
02/04:30pm WSW 10 14 - - - - 10 Mostly clear - 13.7 1023.0 1.2
02/04:00pm SW 11 16 - - - - 10 Mostly clear - 14.6 1023.0 1.2
02/03:30pm SW 10 14 - - - - 10 Mostly clear - 14.7 1023.0 1.2
02/03:00pm SW 15 23 - - - - 10 Cloudy - 14.2 1023.0 1.2
02/02:30pm SW 12 16 - - - - 10 Partly cloudy - 16.5 1022.9 1.2
02/02:00pm SW 12 18 - - - - 10 Mostly clear - 16.8 1022.8 1.2
02/01:30pm SW 13 19 - - - - 10 Mostly clear - 15.3 1023.0 1.2
02/01:00pm WSW 9 13 - - - - 10 Mostly clear - 14.6 1023.2 1.2
02/12:30pm SW 14 22 - - - - 10 Mostly clear - 14.4 1023.5 1.2
02/12:00pm SW 11 15 - - - - 8 Cloudy Showers 13.3 1023.9 1.2
02/11:30am SW 8 16 - - - - 10 Mostly clear - 13.7 1024.3 0.4
02/11:00am WSW 12 16 - - - - 10 Mostly clear - 14.9 1024.2 0.4
02/10:30am WSW 11 16 - - - - 10 Mostly clear - 13.1 1024.4 0.4
02/10:00am W 6 9 - - - - 10 Partly cloudy - 13.2 1024.6 0.2
02/09:30am WSW 9 16 - - - - 7 Mostly clear - 12.4 1024.9 0.2
02/09:00am SSW 5 7 - - - - 10 Cloudy Showers 12.1 1024.9 4.4
02/08:30am WNW 7 8 - - - - 10 Mostly clear - 11.8 1024.6 4.2
02/08:00am SW 7 13 - - - - 10 Mostly clear - 11.6 1024.2 4.2
02/07:30am SSW 10 18 - - - - 10 Mostly clear - 11.6 1023.6 4.2
02/07:00am SW 10 15 - - - - 10 Mostly clear - 11.6 1023.4 4.2
02/06:30am WSW 7 10 - - - - 10 Mostly clear - 11.8 1023.3 4.2
02/06:00am SSW 12 17 - - - - 10 Cloudy Showers 11.8 1023.5 4.2
02/05:30am SSW 6 8 - - - - 10 Partly cloudy - 11.2 1023.3 4.2
02/05:00am SSW 8 11 - - - - 10 Partly cloudy - 11.3 1023.5 4.0
02/04:30am SW 8 13 - - - - 10 Mostly clear - 11.9 1023.1 4.0
02/04:00am WSW 7 10 - - - - 10 Mostly clear - 11.4 1023.0 4.0
02/03:30am SW 10 14 - - - - 10 Mostly clear - 11.8 1023.2 4.0
02/03:00am SW 9 13 - - - - 10 Cloudy Rain 11.7 1023.2 4.0
02/02:30am SW 5 8 - - - - 10 Mostly clear - 10.9 1023.5 4.0
02/02:00am SSW 10 15 - - - - 10 Mostly clear - 11.0 1023.7 4.0
02/01:30am SW 8 11 - - - - 10 Mostly clear - 11.7 1023.5 4.0
02/01:00am SW 7 9 - - - - 10 Partly cloudy - 11.0 1023.3 3.8
02/12:30am SW 5 7 - - - - 10 Mostly clear - 11.3 1023.5 3.8
02/12:00am SW 7 9 - - - - 10 Cloudy - 11.7 1023.5 3.8
 
Date/Time
WST
Wind Sea
Height
m
Swell Vis
km
Cloud Weather Temp
°C
Press
MSL
hPa
Rain since
9am
mm
Dir  Spd
kts
Gust
kts
Height
m
Period
s
Dir
01/11:30pm SW 10 14 - - - - 10 Partly cloudy - 11.4 1023.5 3.8
01/11:00pm W 5 7 - - - - 10 Mostly clear - 10.2 1023.5 3.8
01/10:30pm WNW 6 8 - - - - 10 Mostly clear - 9.6 1023.7 3.8
01/10:00pm S 6 8 - - - - 10 Mostly clear - 10.9 1023.8 3.8

Other formats

Comma delimited format used in spreadsheet applications
http://www.bom.gov.au/fwo/IDW60701/IDW60701.94802.axf

JavaScript Object Notation format (JSON) in row-major order
http://www.bom.gov.au/fwo/IDW60701/IDW60701.94802.json

Data quality

Most of these data are generated automatically and are frequently updated. Quality checks on data are not normally performed. It is possible for incorrect values to appear. Refer to information at About Latest Weather Observations and please check the disclaimer before using these data.